createdAt,value
2018-12-26T00:00:21.963Z,1030.78
2018-12-26T00:00:47.541Z,1030.74
2018-12-26T00:01:13.245Z,1030.76
2018-12-26T00:01:38.708Z,1030.76
2018-12-26T00:02:04.265Z,1030.77
2018-12-26T00:02:29.839Z,1030.78
2018-12-26T00:02:55.426Z,1030.74
2018-12-26T00:03:21.005Z,1030.78
2018-12-26T00:03:46.575Z,1030.79
2018-12-26T00:04:12.159Z,1030.85
2018-12-26T00:04:37.738Z,1030.81
2018-12-26T00:05:03.329Z,1030.75
2018-12-26T00:05:28.974Z,1030.75
2018-12-26T00:05:54.481Z,1030.8
2018-12-26T00:06:20.065Z,1030.7
2018-12-26T00:06:45.657Z,1030.71
2018-12-26T00:07:11.216Z,1030.75
2018-12-26T00:07:36.781Z,1030.75
2018-12-26T00:08:02.361Z,1030.74
2018-12-26T00:08:27.943Z,1030.68
2018-12-26T00:08:53.541Z,1030.72
2018-12-26T00:09:19.119Z,1030.74
2018-12-26T00:09:44.703Z,1030.71
2018-12-26T00:10:10.291Z,1030.73
2018-12-26T00:10:35.893Z,1030.68
2018-12-26T00:11:01.484Z,1030.71
2018-12-26T00:11:27.059Z,1030.78
2018-12-26T00:11:52.652Z,1030.73
2018-12-26T00:12:18.245Z,1030.75
2018-12-26T00:12:43.829Z,1030.77
2018-12-26T00:13:09.402Z,1030.7
2018-12-26T00:13:34.978Z,1030.64
2018-12-26T00:14:00.553Z,1030.67
2018-12-26T00:14:26.139Z,1030.71
2018-12-26T00:14:51.705Z,1030.68
2018-12-26T00:15:17.284Z,1030.66
2018-12-26T00:15:42.875Z,1030.65
2018-12-26T00:16:08.448Z,1030.67
2018-12-26T00:16:34.037Z,1030.69
2018-12-26T00:16:59.611Z,1030.71
2018-12-26T00:17:25.195Z,1030.66
2018-12-26T00:17:50.777Z,1030.69
2018-12-26T00:18:16.363Z,1030.64
2018-12-26T00:18:42.056Z,1030.66
2018-12-26T00:19:07.521Z,1030.63
2018-12-26T00:19:33.195Z,1030.64
2018-12-26T00:19:58.707Z,1030.64
2018-12-26T00:20:24.259Z,1030.73
2018-12-26T00:20:49.847Z,1030.71
2018-12-26T00:21:15.427Z,1030.64
2018-12-26T00:21:41.003Z,1030.56
2018-12-26T00:22:06.601Z,1030.62
2018-12-26T00:22:32.172Z,1030.65
2018-12-26T00:22:57.753Z,1030.62
2018-12-26T00:23:23.319Z,1030.66
2018-12-26T00:23:48.893Z,1030.68
2018-12-26T00:24:14.487Z,1030.68
2018-12-26T00:24:40.063Z,1030.68
2018-12-26T00:25:05.639Z,1030.7
2018-12-26T00:25:31.227Z,1030.68
2018-12-26T00:26:01.546Z,1030.65
2018-12-26T00:26:22.377Z,1030.66
2018-12-26T00:26:47.969Z,1030.68
2018-12-26T00:27:13.545Z,1030.7
2018-12-26T00:27:39.152Z,1030.7
2018-12-26T00:28:04.739Z,1030.68
2018-12-26T00:28:30.330Z,1030.66
2018-12-26T00:28:55.900Z,1030.69
2018-12-26T00:29:21.475Z,1030.69
2018-12-26T00:29:48.855Z,1030.71
2018-12-26T00:30:12.649Z,1030.63
2018-12-26T00:30:38.231Z,1030.65
2018-12-26T00:31:03.831Z,1030.71
2018-12-26T00:31:29.395Z,1030.71
2018-12-26T00:31:54.971Z,1030.7
2018-12-26T00:32:20.558Z,1030.66
2018-12-26T00:32:46.144Z,1030.7
2018-12-26T00:33:11.737Z,1030.68
2018-12-26T00:33:37.325Z,1030.73
2018-12-26T00:34:02.899Z,1030.7
2018-12-26T00:34:28.469Z,1030.65
2018-12-26T00:34:54.043Z,1030.72
2018-12-26T00:35:19.625Z,1030.67
2018-12-26T00:35:45.209Z,1030.69
2018-12-26T00:36:10.789Z,1030.71
2018-12-26T00:36:36.371Z,1030.75
2018-12-26T00:37:01.949Z,1030.69
2018-12-26T00:37:27.528Z,1030.69
2018-12-26T00:37:53.126Z,1030.68
2018-12-26T00:38:18.707Z,1030.64
2018-12-26T00:38:44.273Z,1030.72
2018-12-26T00:39:09.859Z,1030.67
2018-12-26T00:39:35.441Z,1030.72
2018-12-26T00:40:01.027Z,1030.64
2018-12-26T00:40:26.592Z,1030.64
2018-12-26T00:40:52.171Z,1030.66
2018-12-26T00:41:17.744Z,1030.63
2018-12-26T00:41:43.318Z,1030.65
2018-12-26T00:42:08.907Z,1030.65
2018-12-26T00:42:34.470Z,1030.62
2018-12-26T00:43:00.051Z,1030.67
2018-12-26T00:43:25.632Z,1030.6
2018-12-26T00:43:51.227Z,1030.68
2018-12-26T00:44:16.810Z,1030.67
2018-12-26T00:44:42.375Z,1030.66
2018-12-26T00:45:07.961Z,1030.69
2018-12-26T00:45:33.554Z,1030.69
2018-12-26T00:45:59.146Z,1030.68
2018-12-26T00:46:24.722Z,1030.73
2018-12-26T00:46:50.299Z,1030.74
2018-12-26T00:47:15.874Z,1030.69
2018-12-26T00:47:41.455Z,1030.76
2018-12-26T00:48:07.036Z,1030.69
2018-12-26T00:48:32.639Z,1030.66
2018-12-26T00:48:58.205Z,1030.69
2018-12-26T00:49:23.795Z,1030.72
2018-12-26T00:49:49.371Z,1030.68
2018-12-26T00:50:14.952Z,1030.72
2018-12-26T00:50:40.538Z,1030.71
2018-12-26T00:51:06.114Z,1030.66
2018-12-26T00:51:31.703Z,1030.69
2018-12-26T00:51:57.274Z,1030.67
2018-12-26T00:52:22.863Z,1030.69
2018-12-26T00:52:48.442Z,1030.7
2018-12-26T00:53:14.022Z,1030.67
2018-12-26T00:53:39.596Z,1030.66
2018-12-26T00:54:05.197Z,1030.7
2018-12-26T00:54:30.770Z,1030.67
2018-12-26T00:54:56.342Z,1030.76
2018-12-26T00:55:21.924Z,1030.77
2018-12-26T00:55:47.502Z,1030.76
2018-12-26T00:56:13.069Z,1030.8
2018-12-26T00:56:38.650Z,1030.79
2018-12-26T00:57:04.291Z,1030.82
2018-12-26T00:57:29.816Z,1030.75
2018-12-26T00:57:55.398Z,1030.78
2018-12-26T00:58:20.969Z,1030.79
2018-12-26T00:58:46.566Z,1030.83
2018-12-26T00:59:12.154Z,1030.76
2018-12-26T00:59:37.718Z,1030.78
2018-12-26T01:00:03.288Z,1030.79
2018-12-26T01:00:28.856Z,1030.79
2018-12-26T01:00:54.417Z,1030.76
2018-12-26T01:01:20.004Z,1030.76
2018-12-26T01:01:45.567Z,1030.82
2018-12-26T01:02:11.138Z,1030.79
2018-12-26T01:02:36.701Z,1030.71
2018-12-26T01:03:02.296Z,1030.7
2018-12-26T01:03:27.888Z,1030.76
2018-12-26T01:03:53.470Z,1030.66
2018-12-26T01:04:19.036Z,1030.68
2018-12-26T01:04:44.617Z,1030.68
2018-12-26T01:05:10.197Z,1030.77
2018-12-26T01:05:35.800Z,1030.71
2018-12-26T01:06:01.340Z,1030.7
2018-12-26T01:06:26.943Z,1030.65
2018-12-26T01:06:52.508Z,1030.59
2018-12-26T01:07:18.080Z,1030.67
2018-12-26T01:07:43.658Z,1030.69
2018-12-26T01:08:09.238Z,1030.7
2018-12-26T01:08:34.816Z,1030.68
2018-12-26T01:09:00.409Z,1030.72
2018-12-26T01:09:25.969Z,1030.69
2018-12-26T01:09:51.558Z,1030.72
2018-12-26T01:10:17.139Z,1030.69
2018-12-26T01:10:42.718Z,1030.72
2018-12-26T01:11:08.310Z,1030.76
2018-12-26T01:11:33.898Z,1030.7
2018-12-26T01:11:59.464Z,1030.73
2018-12-26T01:12:25.050Z,1030.68
2018-12-26T01:12:50.619Z,1030.7
2018-12-26T01:13:16.194Z,1030.7
2018-12-26T01:13:41.770Z,1030.71
2018-12-26T01:14:07.339Z,1030.72
2018-12-26T01:14:32.912Z,1030.66
2018-12-26T01:14:58.514Z,1030.66
2018-12-26T01:15:24.068Z,1030.74
2018-12-26T01:15:49.654Z,1030.67
2018-12-26T01:16:15.238Z,1030.66
2018-12-26T01:16:40.820Z,1030.68
2018-12-26T01:17:06.430Z,1030.71
2018-12-26T01:17:31.976Z,1030.67
2018-12-26T01:17:58.219Z,1030.58
2018-12-26T01:18:23.129Z,1030.65
2018-12-26T01:18:48.708Z,1030.63
2018-12-26T01:19:14.295Z,1030.63
2018-12-26T01:19:39.896Z,1030.65
2018-12-26T01:20:05.455Z,1030.59
2018-12-26T01:20:31.022Z,1030.63
2018-12-26T01:20:56.603Z,1030.59
2018-12-26T01:21:22.176Z,1030.58
2018-12-26T01:21:47.748Z,1030.63
2018-12-26T01:22:13.322Z,1030.63
2018-12-26T01:22:38.890Z,1030.6
2018-12-26T01:23:04.474Z,1030.58
2018-12-26T01:23:30.056Z,1030.6
2018-12-26T01:23:55.630Z,1030.56
2018-12-26T01:24:21.203Z,1030.6
2018-12-26T01:24:46.767Z,1030.59
2018-12-26T01:25:12.344Z,1030.61
2018-12-26T01:25:37.933Z,1030.64
2018-12-26T01:26:03.504Z,1030.61
2018-12-26T01:26:29.086Z,1030.62
2018-12-26T01:26:54.662Z,1030.61
2018-12-26T01:27:20.238Z,1030.6
2018-12-26T01:27:45.819Z,1030.56
2018-12-26T01:28:11.402Z,1030.6
2018-12-26T01:28:36.988Z,1030.55
2018-12-26T01:29:02.564Z,1030.57
2018-12-26T01:29:28.151Z,1030.56
2018-12-26T01:29:53.752Z,1030.58
2018-12-26T01:30:19.324Z,1030.62
2018-12-26T01:30:44.892Z,1030.61
2018-12-26T01:31:10.514Z,1030.53
2018-12-26T01:31:36.080Z,1030.51
2018-12-26T01:32:01.654Z,1030.6
2018-12-26T01:32:27.238Z,1030.57
2018-12-26T01:32:52.807Z,1030.64
2018-12-26T01:33:18.388Z,1030.62
2018-12-26T01:33:43.959Z,1030.61
2018-12-26T01:34:09.532Z,1030.6
2018-12-26T01:34:35.114Z,1030.67
2018-12-26T01:35:00.698Z,1030.66
2018-12-26T01:35:26.272Z,1030.7
2018-12-26T01:35:51.837Z,1030.69
2018-12-26T01:36:17.419Z,1030.63
2018-12-26T01:36:42.992Z,1030.67
2018-12-26T01:37:08.580Z,1030.68
2018-12-26T01:37:34.162Z,1030.64
2018-12-26T01:37:59.734Z,1030.61
2018-12-26T01:38:25.312Z,1030.63
2018-12-26T01:38:50.890Z,1030.57
2018-12-26T01:39:16.465Z,1030.52
2018-12-26T01:39:42.034Z,1030.57
2018-12-26T01:40:07.606Z,1030.53
2018-12-26T01:40:33.186Z,1030.52
2018-12-26T01:40:58.762Z,1030.54
2018-12-26T01:41:24.340Z,1030.53
2018-12-26T01:41:49.932Z,1030.55
2018-12-26T01:42:15.504Z,1030.59
2018-12-26T01:42:41.069Z,1030.61
2018-12-26T01:43:06.635Z,1030.58
2018-12-26T01:43:32.222Z,1030.54
2018-12-26T01:43:57.808Z,1030.57
2018-12-26T01:44:23.374Z,1030.59
2018-12-26T01:44:48.954Z,1030.58
2018-12-26T01:45:14.528Z,1030.62
2018-12-26T01:45:40.100Z,1030.56
2018-12-26T01:46:05.696Z,1030.57
2018-12-26T01:46:31.268Z,1030.6
2018-12-26T01:46:56.854Z,1030.62
2018-12-26T01:47:22.424Z,1030.63
2018-12-26T01:47:48.004Z,1030.61
2018-12-26T01:48:13.584Z,1030.65
2018-12-26T01:48:39.151Z,1030.57
2018-12-26T01:49:04.727Z,1030.64
2018-12-26T01:49:30.313Z,1030.67
2018-12-26T01:49:55.890Z,1030.63
2018-12-26T01:50:21.460Z,1030.64
2018-12-26T01:50:47.037Z,1030.65
2018-12-26T01:51:12.623Z,1030.62
2018-12-26T01:51:38.203Z,1030.64
2018-12-26T01:52:03.785Z,1030.63
2018-12-26T01:52:29.380Z,1030.63
2018-12-26T01:52:54.946Z,1030.6
2018-12-26T01:53:20.514Z,1030.65
2018-12-26T01:53:46.087Z,1030.62
2018-12-26T01:54:11.673Z,1030.6
2018-12-26T01:54:37.264Z,1030.6
2018-12-26T01:55:02.842Z,1030.53
2018-12-26T01:55:28.412Z,1030.57
2018-12-26T01:55:54.003Z,1030.52
2018-12-26T01:56:27.667Z,1030.53
2018-12-26T01:56:45.141Z,1030.57
2018-12-26T01:57:10.713Z,1030.59
2018-12-26T01:57:36.292Z,1030.53
2018-12-26T01:58:01.858Z,1030.53
2018-12-26T01:58:27.445Z,1030.57
2018-12-26T01:58:53.036Z,1030.5
2018-12-26T01:59:18.629Z,1030.57
2018-12-26T01:59:44.200Z,1030.52
2018-12-26T02:00:09.752Z,1030.52
2018-12-26T02:00:35.326Z,1030.54
2018-12-26T02:01:00.921Z,1030.53
2018-12-26T02:01:26.512Z,1030.65
2018-12-26T02:01:52.077Z,1030.54
2018-12-26T02:02:17.653Z,1030.49
2018-12-26T02:02:43.234Z,1030.53
2018-12-26T02:03:08.820Z,1030.58
2018-12-26T02:03:34.397Z,1030.61
2018-12-26T02:03:59.975Z,1030.51
2018-12-26T02:04:25.560Z,1030.54
2018-12-26T02:04:51.142Z,1030.56
2018-12-26T02:05:16.727Z,1030.57
2018-12-26T02:05:42.320Z,1030.61
2018-12-26T02:06:07.900Z,1030.57
2018-12-26T02:06:33.469Z,1030.6
2018-12-26T02:06:59.044Z,1030.61
2018-12-26T02:07:24.621Z,1030.6
2018-12-26T02:07:50.186Z,1030.55
2018-12-26T02:08:15.770Z,1030.57
2018-12-26T02:08:41.342Z,1030.59
2018-12-26T02:09:06.915Z,1030.57
2018-12-26T02:09:32.492Z,1030.52
2018-12-26T02:09:58.066Z,1030.52
2018-12-26T02:10:23.660Z,1030.56
2018-12-26T02:10:49.245Z,1030.47
2018-12-26T02:11:14.820Z,1030.48
2018-12-26T02:11:40.399Z,1030.5
2018-12-26T02:12:05.991Z,1030.49
2018-12-26T02:12:31.570Z,1030.46
2018-12-26T02:12:57.156Z,1030.49
2018-12-26T02:13:22.755Z,1030.47
2018-12-26T02:13:48.286Z,1030.47
2018-12-26T02:14:13.860Z,1030.42
2018-12-26T02:14:39.440Z,1030.44
2018-12-26T02:15:05.023Z,1030.42
2018-12-26T02:15:30.634Z,1030.39
2018-12-26T02:15:56.203Z,1030.42
2018-12-26T02:16:21.773Z,1030.37
2018-12-26T02:16:47.359Z,1030.4
2018-12-26T02:17:12.936Z,1030.35
2018-12-26T02:17:38.511Z,1030.36
2018-12-26T02:18:04.091Z,1030.27
2018-12-26T02:18:29.663Z,1030.3
2018-12-26T02:18:55.254Z,1030.31
2018-12-26T02:19:20.848Z,1030.29
2018-12-26T02:19:46.418Z,1030.35
2018-12-26T02:20:11.989Z,1030.33
2018-12-26T02:20:37.568Z,1030.32
2018-12-26T02:21:03.146Z,1030.27
2018-12-26T02:21:28.724Z,1030.31
2018-12-26T02:21:54.314Z,1030.33
2018-12-26T02:22:19.892Z,1030.33
2018-12-26T02:22:45.458Z,1030.33
2018-12-26T02:23:11.031Z,1030.26
2018-12-26T02:23:36.624Z,1030.28
2018-12-26T02:24:02.187Z,1030.28
2018-12-26T02:24:27.761Z,1030.26
2018-12-26T02:24:53.335Z,1030.3
2018-12-26T02:25:18.908Z,1030.31
2018-12-26T02:25:44.486Z,1030.26
2018-12-26T02:26:10.069Z,1030.28
2018-12-26T02:26:36.451Z,1030.2
2018-12-26T02:27:01.219Z,1030.27
2018-12-26T02:27:26.779Z,1030.25
2018-12-26T02:27:52.359Z,1030.23
2018-12-26T02:28:17.939Z,1030.27
2018-12-26T02:28:43.505Z,1030.22
2018-12-26T02:29:09.091Z,1030.25
2018-12-26T02:29:34.678Z,1030.2
2018-12-26T02:30:00.268Z,1030.16
2018-12-26T02:30:25.854Z,1030.22
2018-12-26T02:30:51.416Z,1030.27
2018-12-26T02:31:17.005Z,1030.24
2018-12-26T02:31:42.580Z,1030.19
2018-12-26T02:32:08.167Z,1030.22
2018-12-26T02:32:33.748Z,1030.19
2018-12-26T02:32:59.326Z,1030.18
2018-12-26T02:33:24.906Z,1030.2
2018-12-26T02:33:50.476Z,1030.21
2018-12-26T02:34:16.048Z,1030.2
2018-12-26T02:34:41.616Z,1030.21
2018-12-26T02:35:07.208Z,1030.25
2018-12-26T02:35:32.794Z,1030.19
2018-12-26T02:35:58.363Z,1030.18
2018-12-26T02:36:23.940Z,1030.2
2018-12-26T02:36:49.516Z,1030.17
2018-12-26T02:37:15.111Z,1030.19
2018-12-26T02:37:40.690Z,1030.19
2018-12-26T02:38:06.256Z,1030.15
2018-12-26T02:38:31.843Z,1030.11
2018-12-26T02:38:57.435Z,1030.14
2018-12-26T02:39:23.006Z,1030.18
2018-12-26T02:39:48.589Z,1030.14
2018-12-26T02:40:14.158Z,1030.16
2018-12-26T02:40:39.743Z,1030.15
2018-12-26T02:41:05.317Z,1030.12
2018-12-26T02:41:30.884Z,1030.15
2018-12-26T02:41:56.459Z,1030.11
2018-12-26T02:42:22.020Z,1030.08
2018-12-26T02:42:47.589Z,1030.17
2018-12-26T02:43:13.155Z,1030.17
2018-12-26T02:43:38.734Z,1030.11
2018-12-26T02:44:04.404Z,1030.1
2018-12-26T02:44:29.892Z,1030.11
2018-12-26T02:44:55.464Z,1030.07
2018-12-26T02:45:21.055Z,1030.04
2018-12-26T02:45:46.633Z,1030.04
2018-12-26T02:46:12.203Z,1030.04
2018-12-26T02:46:37.776Z,1030.08
2018-12-26T02:47:03.345Z,1030.05
2018-12-26T02:47:28.922Z,1030.04
2018-12-26T02:47:54.501Z,1030.03
2018-12-26T02:48:20.061Z,1030.07
2018-12-26T02:48:45.643Z,1029.99
2018-12-26T02:49:11.235Z,1030.06
2018-12-26T02:49:36.822Z,1030
2018-12-26T02:50:02.395Z,1030.02
2018-12-26T02:50:27.963Z,1030.01
2018-12-26T02:50:53.538Z,1030.05
2018-12-26T02:51:19.111Z,1030.02
2018-12-26T02:51:44.699Z,1030.03
2018-12-26T02:52:10.267Z,1030
2018-12-26T02:52:35.849Z,1029.98
2018-12-26T02:53:01.426Z,1030.01
2018-12-26T02:53:27.004Z,1029.98
2018-12-26T02:53:52.574Z,1030
2018-12-26T02:54:18.154Z,1030.05
2018-12-26T02:54:43.729Z,1030.05
2018-12-26T02:55:09.308Z,1030.01
2018-12-26T02:55:34.874Z,1030.08
2018-12-26T02:56:00.444Z,1030.08
2018-12-26T02:56:26.013Z,1030.09
2018-12-26T02:56:51.592Z,1030.05
2018-12-26T02:57:17.178Z,1030.07
2018-12-26T02:57:42.743Z,1030.09
2018-12-26T02:58:08.323Z,1030.11
2018-12-26T02:58:33.895Z,1030.07
2018-12-26T02:58:59.473Z,1030.06
2018-12-26T02:59:25.033Z,1030.08
2018-12-26T02:59:50.618Z,1030.03
2018-12-26T03:00:16.199Z,1030.03
2018-12-26T03:00:41.765Z,1030.04
2018-12-26T03:01:07.357Z,1030.05
2018-12-26T03:01:32.935Z,1030
2018-12-26T03:01:58.539Z,1029.99
2018-12-26T03:02:24.111Z,1029.99
2018-12-26T03:02:49.687Z,1030.03
2018-12-26T03:03:15.255Z,1030.02
2018-12-26T03:03:40.827Z,1030
2018-12-26T03:04:06.414Z,1030.03
2018-12-26T03:04:31.981Z,1030.01
2018-12-26T03:04:57.550Z,1030.04
2018-12-26T03:05:23.119Z,1030.06
2018-12-26T03:05:48.695Z,1030.04
2018-12-26T03:06:14.275Z,1030.05
2018-12-26T03:06:39.843Z,1030.07
2018-12-26T03:07:05.409Z,1030.02
2018-12-26T03:07:30.987Z,1030.07
2018-12-26T03:07:56.567Z,1030.09
2018-12-26T03:08:22.166Z,1030.05
2018-12-26T03:08:47.760Z,1030.14
2018-12-26T03:09:13.326Z,1030.01
2018-12-26T03:09:38.901Z,1030.09
2018-12-26T03:10:04.484Z,1030.06
2018-12-26T03:10:30.061Z,1030.02
2018-12-26T03:10:55.620Z,1030.06
2018-12-26T03:11:21.209Z,1030.09
2018-12-26T03:11:46.784Z,1030.03
2018-12-26T03:12:12.354Z,1030.05
2018-12-26T03:12:37.935Z,1030.05
2018-12-26T03:13:03.511Z,1030.01
2018-12-26T03:13:29.136Z,1030.08
2018-12-26T03:13:54.657Z,1030.04
2018-12-26T03:14:20.243Z,1030.03
2018-12-26T03:14:45.828Z,1030.07
2018-12-26T03:15:11.402Z,1030.05
2018-12-26T03:15:36.975Z,1030.09
2018-12-26T03:16:02.552Z,1030.03
2018-12-26T03:16:28.125Z,1030.11
2018-12-26T03:16:53.699Z,1030.06
2018-12-26T03:17:19.273Z,1030.09
2018-12-26T03:17:44.852Z,1030.08
2018-12-26T03:18:10.418Z,1030.1
2018-12-26T03:18:35.997Z,1030.07
2018-12-26T03:19:01.569Z,1030.07
2018-12-26T03:19:27.146Z,1030.07
2018-12-26T03:19:52.715Z,1030.06
2018-12-26T03:20:18.279Z,1030.11
2018-12-26T03:20:43.839Z,1030.09
2018-12-26T03:21:09.407Z,1030.12
2018-12-26T03:21:34.980Z,1030.05
2018-12-26T03:22:00.546Z,1030.03
2018-12-26T03:22:26.113Z,1030.08
2018-12-26T03:22:51.693Z,1030.03
2018-12-26T03:23:17.263Z,1030.05
2018-12-26T03:23:42.837Z,1030.01
2018-12-26T03:24:08.417Z,1030
2018-12-26T03:24:34.004Z,1030
2018-12-26T03:24:59.565Z,1029.99
2018-12-26T03:25:25.139Z,1029.98
2018-12-26T03:25:50.713Z,1029.97
2018-12-26T03:26:16.289Z,1029.92
2018-12-26T03:26:41.861Z,1029.94
2018-12-26T03:27:07.455Z,1029.93
2018-12-26T03:27:33.025Z,1029.99
2018-12-26T03:27:58.662Z,1030
2018-12-26T03:28:24.170Z,1029.99
2018-12-26T03:28:49.752Z,1029.94
2018-12-26T03:29:15.328Z,1029.93
2018-12-26T03:29:40.909Z,1029.95
2018-12-26T03:30:06.485Z,1029.92
2018-12-26T03:30:32.070Z,1029.92
2018-12-26T03:30:57.645Z,1029.94
2018-12-26T03:31:23.227Z,1029.91
2018-12-26T03:31:48.794Z,1029.94
2018-12-26T03:32:14.368Z,1029.92
2018-12-26T03:32:39.960Z,1029.89
2018-12-26T03:33:05.512Z,1029.93
2018-12-26T03:33:31.066Z,1029.88
2018-12-26T03:33:56.640Z,1029.9
2018-12-26T03:34:22.232Z,1029.94
2018-12-26T03:34:47.809Z,1029.85
2018-12-26T03:35:13.402Z,1029.86
2018-12-26T03:35:38.980Z,1029.88
2018-12-26T03:36:04.554Z,1029.88
2018-12-26T03:36:30.126Z,1029.86
2018-12-26T03:36:55.708Z,1029.86
2018-12-26T03:37:21.275Z,1029.86
2018-12-26T03:37:46.844Z,1029.86
2018-12-26T03:38:12.428Z,1029.88
2018-12-26T03:38:38.005Z,1029.86
2018-12-26T03:39:03.568Z,1029.84
2018-12-26T03:39:29.146Z,1029.85
2018-12-26T03:39:54.720Z,1029.87
2018-12-26T03:40:20.302Z,1029.85
2018-12-26T03:40:45.878Z,1029.8
2018-12-26T03:41:11.459Z,1029.89
2018-12-26T03:41:37.033Z,1029.87
2018-12-26T03:42:02.623Z,1029.85
2018-12-26T03:42:28.194Z,1029.81
2018-12-26T03:42:53.798Z,1029.79
2018-12-26T03:43:19.370Z,1029.79
2018-12-26T03:43:44.946Z,1029.79
2018-12-26T03:44:10.529Z,1029.82
2018-12-26T03:44:36.105Z,1029.78
2018-12-26T03:45:01.669Z,1029.77
2018-12-26T03:45:27.244Z,1029.77
2018-12-26T03:45:52.819Z,1029.77
2018-12-26T03:46:18.387Z,1029.78
2018-12-26T03:46:43.952Z,1029.78
2018-12-26T03:47:09.538Z,1029.8
2018-12-26T03:47:35.097Z,1029.79
2018-12-26T03:48:00.684Z,1029.79
2018-12-26T03:48:26.246Z,1029.75
2018-12-26T03:48:51.818Z,1029.79
2018-12-26T03:49:17.384Z,1029.75
2018-12-26T03:49:42.962Z,1029.72
2018-12-26T03:50:08.525Z,1029.72
2018-12-26T03:50:34.107Z,1029.65
2018-12-26T03:50:59.690Z,1029.56
2018-12-26T03:51:25.267Z,1029.63
2018-12-26T03:51:50.841Z,1029.59
2018-12-26T03:52:16.432Z,1029.55
2018-12-26T03:52:41.996Z,1029.55
2018-12-26T03:53:07.562Z,1029.5
2018-12-26T03:53:33.150Z,1029.56
2018-12-26T03:53:58.712Z,1029.53
2018-12-26T03:54:24.286Z,1029.53
2018-12-26T03:54:49.873Z,1029.49
2018-12-26T03:55:15.440Z,1029.49
2018-12-26T03:55:41.006Z,1029.44
2018-12-26T03:56:06.595Z,1029.45
2018-12-26T03:56:32.172Z,1029.44
2018-12-26T03:57:05.733Z,1029.51
2018-12-26T03:57:23.328Z,1029.44
2018-12-26T03:57:48.908Z,1029.46
2018-12-26T03:58:14.497Z,1029.5
2018-12-26T03:58:40.072Z,1029.5
2018-12-26T03:59:05.642Z,1029.47
2018-12-26T03:59:31.220Z,1029.43
2018-12-26T03:59:56.787Z,1029.47
2018-12-26T04:00:22.368Z,1029.5
2018-12-26T04:00:47.938Z,1029.47
2018-12-26T04:01:13.510Z,1029.5
2018-12-26T04:01:39.086Z,1029.52
2018-12-26T04:02:04.660Z,1029.51
2018-12-26T04:02:30.260Z,1029.51
2018-12-26T04:02:55.844Z,1029.54
2018-12-26T04:03:21.425Z,1029.51
2018-12-26T04:03:47.000Z,1029.51
2018-12-26T04:04:12.577Z,1029.51
2018-12-26T04:04:38.159Z,1029.52
2018-12-26T04:05:03.729Z,1029.51
2018-12-26T04:05:29.288Z,1029.53
2018-12-26T04:05:54.855Z,1029.56
2018-12-26T04:06:20.426Z,1029.49
2018-12-26T04:06:45.991Z,1029.48
2018-12-26T04:07:11.557Z,1029.48
2018-12-26T04:07:37.130Z,1029.52
2018-12-26T04:08:02.748Z,1029.52
2018-12-26T04:08:28.306Z,1029.51
2018-12-26T04:08:54.044Z,1029.54
2018-12-26T04:09:19.445Z,1029.54
2018-12-26T04:09:45.045Z,1029.59
2018-12-26T04:10:10.597Z,1029.56
2018-12-26T04:10:36.170Z,1029.57
2018-12-26T04:11:01.745Z,1029.57
2018-12-26T04:11:27.316Z,1029.56
2018-12-26T04:11:52.896Z,1029.59
2018-12-26T04:12:18.471Z,1029.55
2018-12-26T04:12:44.052Z,1029.59
2018-12-26T04:13:09.624Z,1029.53
2018-12-26T04:13:35.203Z,1029.56
2018-12-26T04:14:00.776Z,1029.59
2018-12-26T04:14:26.344Z,1029.61
2018-12-26T04:14:51.909Z,1029.61
2018-12-26T04:15:17.498Z,1029.6
2018-12-26T04:15:43.049Z,1029.6
2018-12-26T04:16:08.616Z,1029.64
2018-12-26T04:16:34.180Z,1029.61
2018-12-26T04:16:59.774Z,1029.63
2018-12-26T04:17:25.352Z,1029.53
2018-12-26T04:17:50.947Z,1029.61
2018-12-26T04:18:16.513Z,1029.59
2018-12-26T04:18:42.082Z,1029.61
2018-12-26T04:19:07.652Z,1029.62
2018-12-26T04:19:33.235Z,1029.59
2018-12-26T04:19:58.814Z,1029.62
2018-12-26T04:20:24.381Z,1029.61
2018-12-26T04:20:49.950Z,1029.63
2018-12-26T04:21:15.525Z,1029.59
2018-12-26T04:21:41.101Z,1029.58
2018-12-26T04:22:06.675Z,1029.62
2018-12-26T04:22:32.248Z,1029.6
2018-12-26T04:22:57.826Z,1029.68
2018-12-26T04:23:23.402Z,1029.59
2018-12-26T04:23:49.070Z,1029.58
2018-12-26T04:24:14.561Z,1029.55
2018-12-26T04:24:40.136Z,1029.6
2018-12-26T04:25:05.725Z,1029.55
2018-12-26T04:25:31.302Z,1029.55
2018-12-26T04:25:56.903Z,1029.52
2018-12-26T04:26:22.450Z,1029.57
2018-12-26T04:26:48.023Z,1029.6
2018-12-26T04:27:15.532Z,1029.58
2018-12-26T04:27:39.176Z,1029.52
2018-12-26T04:28:04.752Z,1029.59
2018-12-26T04:28:30.320Z,1029.57
2018-12-26T04:28:55.904Z,1029.55
2018-12-26T04:29:21.473Z,1029.52
2018-12-26T04:29:47.049Z,1029.51
2018-12-26T04:30:12.628Z,1029.48
2018-12-26T04:30:38.216Z,1029.48
2018-12-26T04:31:03.799Z,1029.51
2018-12-26T04:31:29.391Z,1029.47
2018-12-26T04:31:54.964Z,1029.49
2018-12-26T04:32:20.533Z,1029.48
2018-12-26T04:32:46.124Z,1029.47
2018-12-26T04:33:11.706Z,1029.5
2018-12-26T04:33:37.282Z,1029.46
2018-12-26T04:34:02.856Z,1029.47
2018-12-26T04:34:28.430Z,1029.42
2018-12-26T04:34:54.003Z,1029.4
2018-12-26T04:35:19.556Z,1029.45
2018-12-26T04:35:45.124Z,1029.44
2018-12-26T04:36:10.693Z,1029.45
2018-12-26T04:36:36.264Z,1029.45
2018-12-26T04:37:01.844Z,1029.45
2018-12-26T04:37:27.420Z,1029.48
2018-12-26T04:37:52.994Z,1029.48
2018-12-26T04:38:18.567Z,1029.47
2018-12-26T04:38:44.132Z,1029.5
2018-12-26T04:39:09.716Z,1029.6
2018-12-26T04:39:35.282Z,1029.53
2018-12-26T04:40:00.860Z,1029.58
2018-12-26T04:40:26.434Z,1029.56
2018-12-26T04:40:52.010Z,1029.53
2018-12-26T04:41:17.584Z,1029.51
2018-12-26T04:41:43.165Z,1029.5
2018-12-26T04:42:08.744Z,1029.49
2018-12-26T04:42:34.313Z,1029.56
2018-12-26T04:42:59.890Z,1029.57
2018-12-26T04:43:25.468Z,1029.49
2018-12-26T04:43:51.430Z,1029.51
2018-12-26T04:44:16.611Z,1029.56
2018-12-26T04:44:42.206Z,1029.53
2018-12-26T04:45:07.794Z,1029.52
2018-12-26T04:45:33.387Z,1029.53
2018-12-26T04:45:58.964Z,1029.5
2018-12-26T04:46:24.540Z,1029.52
2018-12-26T04:46:50.125Z,1029.56
2018-12-26T04:47:15.706Z,1029.56
2018-12-26T04:47:41.292Z,1029.51
2018-12-26T04:48:06.866Z,1029.57
2018-12-26T04:48:32.430Z,1029.57
2018-12-26T04:48:58.004Z,1029.57
2018-12-26T04:49:23.891Z,1029.58
2018-12-26T04:49:49.154Z,1029.55
2018-12-26T04:50:14.732Z,1029.56
2018-12-26T04:50:40.302Z,1029.6
2018-12-26T04:51:05.871Z,1029.58
2018-12-26T04:51:31.440Z,1029.55
2018-12-26T04:51:57.022Z,1029.54
2018-12-26T04:52:22.596Z,1029.53
2018-12-26T04:52:48.177Z,1029.53
2018-12-26T04:53:13.746Z,1029.54
2018-12-26T04:53:39.328Z,1029.56
2018-12-26T04:54:04.898Z,1029.56
2018-12-26T04:54:30.462Z,1029.59
2018-12-26T04:54:56.421Z,1029.58
2018-12-26T04:55:21.617Z,1029.59
2018-12-26T04:55:47.186Z,1029.56
2018-12-26T04:56:12.769Z,1029.59
2018-12-26T04:56:38.352Z,1029.57
2018-12-26T04:57:03.922Z,1029.57
2018-12-26T04:57:29.494Z,1029.53
2018-12-26T04:57:55.068Z,1029.56
2018-12-26T04:58:20.642Z,1029.56
2018-12-26T04:58:46.221Z,1029.57
2018-12-26T04:59:11.802Z,1029.57
2018-12-26T04:59:37.382Z,1029.54
2018-12-26T05:00:02.976Z,1029.58
2018-12-26T05:00:28.544Z,1029.56
2018-12-26T05:00:54.140Z,1029.57
2018-12-26T05:01:19.706Z,1029.54
2018-12-26T05:01:45.283Z,1029.55
2018-12-26T05:02:10.864Z,1029.56
2018-12-26T05:02:36.445Z,1029.57
2018-12-26T05:03:02.036Z,1029.58
2018-12-26T05:03:27.626Z,1029.62
2018-12-26T05:03:53.203Z,1029.6
2018-12-26T05:04:18.796Z,1029.58
2018-12-26T05:04:44.362Z,1029.59
2018-12-26T05:05:09.930Z,1029.58
2018-12-26T05:05:35.504Z,1029.59
2018-12-26T05:06:01.080Z,1029.61
2018-12-26T05:06:26.644Z,1029.6
2018-12-26T05:06:52.218Z,1029.58
2018-12-26T05:07:17.798Z,1029.56
2018-12-26T05:07:43.368Z,1029.58
2018-12-26T05:08:08.933Z,1029.57
2018-12-26T05:08:34.521Z,1029.67
2018-12-26T05:09:00.088Z,1029.6
2018-12-26T05:09:25.680Z,1029.57
2018-12-26T05:09:51.250Z,1029.62
2018-12-26T05:10:16.828Z,1029.67
2018-12-26T05:10:42.386Z,1029.68